Kaiyang, China
Current Conditions -  °F | °C
As of 11:00 AM on Tuesday 21 Oct 2014 (Local Time) from ZUGY Reporting Station
Broken Clouds Broken Clouds  
Wind Chill: 64°   Ceiling: 2300
Heat Index: 64°   Visibility: 4mi
Dew Point: 57°   Wind: 4mph
Humidity: 77%   Direction: 360°N
Pressure: 30.3"   Gusts: NA
Location:  27.07°N, 106.97°E
Report Text: ZUGY 210300Z 36002MPS 320V040 6000 BKN023 18/14 Q1026 NOSIG
Loading
Personal Weather Stations






























Interactive Weather Map
Tropical Storm Tracking
New forecast layout! Learn more

10-Day Weather Forecast

Advertisements
Track Severe Weather on mobile